createdAt,value
2019-01-05T00:02:41.837Z,4.05
2019-01-05T00:05:26.044Z,4.05
2019-01-05T00:08:13.130Z,4.07
2019-01-05T00:11:07.282Z,4.07
2019-01-05T00:13:50.979Z,4.07
2019-01-05T00:16:39.536Z,4.08
2019-01-05T00:19:28.534Z,4.09
2019-01-05T00:22:16.722Z,4.09
2019-01-05T00:25:17.115Z,4.10
2019-01-05T00:28:05.995Z,4.11
2019-01-05T00:30:57.867Z,4.13
2019-01-05T00:33:50.390Z,4.15
2019-01-05T00:37:05.031Z,4.16
2019-01-05T00:40:08.957Z,4.16
2019-01-05T00:46:02.516Z,4.17
2019-01-05T00:48:50.489Z,4.18
2019-01-05T00:51:55.927Z,4.17
2019-01-05T00:54:44.642Z,4.18
2019-01-05T00:57:42.956Z,4.19
2019-01-05T01:00:31.251Z,4.18
2019-01-05T01:03:25.481Z,4.19
2019-01-05T01:06:12.239Z,4.20
2019-01-05T01:08:59.562Z,4.21
2019-01-05T01:11:50.858Z,4.21
2019-01-05T01:14:44.110Z,4.21
2019-01-05T01:17:32.491Z,4.22
2019-01-05T01:20:18.994Z,4.22
2019-01-05T01:23:16.073Z,4.22
2019-01-05T01:26:14.290Z,4.24
2019-01-05T01:29:10.596Z,4.24
2019-01-05T01:31:57.696Z,4.24
2019-01-05T01:35:01.379Z,4.24
2019-01-05T01:38:23.458Z,4.24
2019-01-05T01:41:19.030Z,4.24
2019-01-05T01:44:02.266Z,4.24
2019-01-05T01:46:50.897Z,4.22
2019-01-05T01:49:37.938Z,4.23
2019-01-05T01:52:25.028Z,4.22
2019-01-05T01:55:12.191Z,4.23
2019-01-05T01:58:05.002Z,4.23
2019-01-05T02:00:54.023Z,4.22
2019-01-05T02:03:42.456Z,4.22
2019-01-05T02:06:28.353Z,4.23
2019-01-05T02:09:17.289Z,4.21
2019-01-05T02:12:11.717Z,4.22
2019-01-05T02:15:08.831Z,4.21
2019-01-05T02:18:07.816Z,4.23
2019-01-05T02:22:01.314Z,4.22
2019-01-05T02:25:30.374Z,4.24
2019-01-05T02:28:53.210Z,4.23
2019-01-05T02:32:33.083Z,4.23
2019-01-05T02:36:11.181Z,4.24
2019-01-05T02:39:43.048Z,4.25
2019-01-05T02:42:47.529Z,4.24
2019-01-05T02:46:27.194Z,4.26
2019-01-05T02:49:57.341Z,4.25
2019-01-05T02:53:30.006Z,4.27
2019-01-05T02:56:56.593Z,4.27
2019-01-05T03:00:29.015Z,4.28
2019-01-05T03:03:55.388Z,4.27
2019-01-05T03:07:28.082Z,4.28
2019-01-05T03:11:03.390Z,4.28
2019-01-05T03:14:49.210Z,4.29
2019-01-05T03:18:39.265Z,4.29
2019-01-05T03:22:34.904Z,4.29
2019-01-05T03:26:22.189Z,4.28
2019-01-05T03:29:45.223Z,4.27
2019-01-05T03:33:44.174Z,4.28
2019-01-05T03:37:21.621Z,4.28
2019-01-05T03:40:50.728Z,4.30
2019-01-05T03:44:24.751Z,4.29
2019-01-05T03:47:55.767Z,4.30
2019-01-05T03:51:25.333Z,4.30
2019-01-05T03:55:28.594Z,4.30
2019-01-05T03:59:01.950Z,4.30
2019-01-05T04:02:45.031Z,4.30
2019-01-05T04:06:44.166Z,4.31
2019-01-05T04:10:14.280Z,4.31
2019-01-05T04:13:30.627Z,4.30
2019-01-05T04:17:09.207Z,4.31
2019-01-05T04:20:32.782Z,4.32
2019-01-05T04:24:21.959Z,4.32
2019-01-05T04:27:45.275Z,4.31
2019-01-05T04:31:09.311Z,4.32
2019-01-05T04:34:56.569Z,4.33
2019-01-05T04:38:37.218Z,4.33
2019-01-05T04:42:20.316Z,4.32
2019-01-05T04:45:59.305Z,4.33
2019-01-05T04:49:33.725Z,4.31
2019-01-05T04:52:46.777Z,4.32
2019-01-05T04:56:47.380Z,4.32
2019-01-05T05:00:09.898Z,4.32
2019-01-05T05:03:34.333Z,4.30
2019-01-05T05:07:23.085Z,4.31
2019-01-05T05:10:39.333Z,4.31
2019-01-05T05:14:10.073Z,4.32
2019-01-05T05:17:17.639Z,4.31
2019-01-05T05:20:36.092Z,4.32
2019-01-05T05:24:04.653Z,4.32
2019-01-05T05:27:30.957Z,4.32
2019-01-05T05:31:23.462Z,4.33
2019-01-05T05:35:00.709Z,4.33
2019-01-05T05:38:32.030Z,4.33
2019-01-05T05:42:01.408Z,4.32
2019-01-05T05:45:25.698Z,4.33
2019-01-05T05:48:56.483Z,4.33
2019-01-05T05:52:25.426Z,4.33
2019-01-05T05:56:08.046Z,4.33
2019-01-05T05:59:35.618Z,4.33
2019-01-05T06:02:46.668Z,4.33
2019-01-05T06:06:16.115Z,4.32
2019-01-05T06:09:36.071Z,4.33
2019-01-05T06:13:34.409Z,4.34
2019-01-05T06:17:16.876Z,4.33
2019-01-05T06:20:59.796Z,4.34
2019-01-05T06:24:35.609Z,4.33
2019-01-05T06:28:12.765Z,4.34
2019-01-05T06:31:38.994Z,4.34
2019-01-05T06:35:12.677Z,4.34
2019-01-05T06:38:39.275Z,4.34
2019-01-05T06:42:16.297Z,4.34
2019-01-05T06:45:49.271Z,4.34
2019-01-05T06:49:17.123Z,4.35
2019-01-05T06:52:48.130Z,4.35
2019-01-05T06:56:27.034Z,4.35
2019-01-05T07:00:03.545Z,4.35
2019-01-05T07:03:27.390Z,4.36
2019-01-05T07:07:04.708Z,4.36
2019-01-05T07:10:32.573Z,4.36
2019-01-05T07:14:01.197Z,4.35
2019-01-05T07:17:23.681Z,4.36
2019-01-05T07:21:03.238Z,4.36
2019-01-05T07:24:35.469Z,4.38
2019-01-05T07:28:02.383Z,4.37
2019-01-05T07:31:47.803Z,4.37
2019-01-05T07:35:20.225Z,4.37
2019-01-05T07:38:35.530Z,4.38
2019-01-05T07:42:06.095Z,4.37
2019-01-05T07:45:30.928Z,4.37
2019-01-05T07:49:00.119Z,4.37
2019-01-05T07:52:36.206Z,4.38
2019-01-05T07:56:07.399Z,4.37
2019-01-05T07:59:44.045Z,4.37
2019-01-05T08:02:58.538Z,4.37
2019-01-05T08:06:25.634Z,4.36
2019-01-05T08:10:08.086Z,4.37
2019-01-05T08:13:25.338Z,4.36
2019-01-05T08:16:57.835Z,4.37
2019-01-05T08:20:24.590Z,4.37
2019-01-05T08:23:46.667Z,4.37
2019-01-05T08:27:30.074Z,4.36
2019-01-05T08:30:58.703Z,4.36
2019-01-05T08:34:31.406Z,4.36
2019-01-05T08:37:58.295Z,4.36
2019-01-05T08:41:33.441Z,4.35
2019-01-05T08:45:28.741Z,4.37
2019-01-05T08:48:51.149Z,4.36
2019-01-05T08:52:44.207Z,4.36
2019-01-05T08:56:17.338Z,4.36
2019-01-05T08:59:58.239Z,4.37
2019-01-05T09:03:38.980Z,4.38
2019-01-05T09:07:28.661Z,4.38
2019-01-05T09:11:00.393Z,4.39
2019-01-05T09:14:38.626Z,4.40
2019-01-05T09:18:13.619Z,4.41
2019-01-05T09:21:44.560Z,4.42
2019-01-05T09:25:05.158Z,4.44
2019-01-05T09:28:45.536Z,4.45
2019-01-05T09:32:15.210Z,4.46
2019-01-05T09:35:47.355Z,4.47
2019-01-05T09:39:30.379Z,4.48
2019-01-05T09:43:10.598Z,4.48
2019-01-05T09:46:50.271Z,4.50
2019-01-05T09:50:16.916Z,4.53
2019-01-05T09:54:03.555Z,4.54
2019-01-05T09:57:33.590Z,4.56
2019-01-05T10:01:06.979Z,4.58
2019-01-05T10:04:43.060Z,4.61
2019-01-05T10:08:14.016Z,4.63
2019-01-05T10:11:44.485Z,4.66
2019-01-05T10:15:14.101Z,4.70
2019-01-05T10:18:32.448Z,4.72
2019-01-05T10:22:11.391Z,4.75
2019-01-05T10:25:42.534Z,4.78
2019-01-05T10:29:05.775Z,4.80
2019-01-05T10:32:24.085Z,4.84
2019-01-05T10:36:12.240Z,4.87
2019-01-05T10:39:36.807Z,4.90
2019-01-05T10:42:59.998Z,4.93
2019-01-05T10:46:28.433Z,4.95
2019-01-05T10:50:05.102Z,4.99
2019-01-05T10:53:49.927Z,5.02
2019-01-05T10:57:29.888Z,5.06
2019-01-05T11:01:08.089Z,5.10
2019-01-05T11:04:40.082Z,5.14
2019-01-05T11:08:21.665Z,5.19
2019-01-05T11:11:49.116Z,5.23
2019-01-05T11:15:21.608Z,5.26
2019-01-05T11:18:47.440Z,5.31
2019-01-05T11:22:27.195Z,5.33
2019-01-05T11:25:33.810Z,5.36
2019-01-05T11:28:57.887Z,5.38
2019-01-05T11:32:21.117Z,5.42
2019-01-05T11:35:29.857Z,5.44
2019-01-05T11:38:43.719Z,5.47
2019-01-05T11:42:22.538Z,5.49
2019-01-05T11:45:44.153Z,5.53
2019-01-05T11:48:58.452Z,5.57
2019-01-05T11:52:24.556Z,5.60
2019-01-05T11:56:08.820Z,5.61
2019-01-05T11:59:24.481Z,5.66
2019-01-05T12:02:57.361Z,5.71
2019-01-05T12:06:26.611Z,5.76
2019-01-05T12:09:47.358Z,5.80
2019-01-05T12:13:20.382Z,5.85
2019-01-05T12:17:00.001Z,5.89
2019-01-05T12:20:58.166Z,5.95
2019-01-05T12:24:50.026Z,5.97
2019-01-05T12:28:13.754Z,6.01
2019-01-05T12:31:49.528Z,6.05
2019-01-05T12:35:41.072Z,6.09
2019-01-05T12:39:08.215Z,6.11
2019-01-05T12:42:19.611Z,6.17
2019-01-05T12:45:43.416Z,6.20
2019-01-05T12:49:27.953Z,6.22
2019-01-05T12:53:09.790Z,6.25
2019-01-05T12:56:51.120Z,6.28
2019-01-05T13:00:21.646Z,6.31
2019-01-05T13:03:54.142Z,6.32
2019-01-05T13:07:18.070Z,6.34
2019-01-05T13:11:20.251Z,6.34
2019-01-05T13:14:53.394Z,6.37
2019-01-05T13:18:55.691Z,6.38
2019-01-05T13:22:06.371Z,6.38
2019-01-05T13:25:40.463Z,6.39
2019-01-05T13:29:23.626Z,6.39
2019-01-05T13:33:15.385Z,6.39
2019-01-05T13:36:48.251Z,6.38
2019-01-05T13:40:17.765Z,6.39
2019-01-05T13:43:49.545Z,6.40
2019-01-05T13:47:20.476Z,6.39
2019-01-05T13:50:57.289Z,6.39
2019-01-05T13:53:56.134Z,6.39
2019-01-05T13:56:55.241Z,6.39
2019-01-05T13:59:49.358Z,6.37
2019-01-05T14:02:55.634Z,6.36
2019-01-05T14:05:57.676Z,6.36
2019-01-05T14:08:44.483Z,6.35
2019-01-05T14:11:31.489Z,6.35
2019-01-05T14:14:18.451Z,6.35
2019-01-05T14:17:06.743Z,6.35
2019-01-05T14:19:57.805Z,6.35
2019-01-05T14:22:44.975Z,6.35
2019-01-05T14:25:33.370Z,6.35
2019-01-05T14:28:30.901Z,6.34
2019-01-05T14:31:22.233Z,6.34
2019-01-05T14:34:19.639Z,6.35
2019-01-05T14:37:06.572Z,6.34
2019-01-05T14:39:53.783Z,6.33
2019-01-05T14:42:44.903Z,6.33
2019-01-05T14:45:31.979Z,6.33
2019-01-05T14:48:19.220Z,6.32
2019-01-05T14:51:07.499Z,6.32
2019-01-05T14:54:04.672Z,6.31
2019-01-05T14:56:51.389Z,6.31
2019-01-05T14:59:45.692Z,6.30
2019-01-05T15:02:32.593Z,6.29
2019-01-05T15:05:24.355Z,6.28
2019-01-05T15:08:30.618Z,6.27
2019-01-05T15:11:31.417Z,6.26
2019-01-05T15:14:31.661Z,6.23
2019-01-05T15:17:38.578Z,6.22
2019-01-05T15:20:30.043Z,6.20
2019-01-05T15:23:17.946Z,6.20
2019-01-05T15:26:04.776Z,6.18
2019-01-05T15:28:59.338Z,6.18
2019-01-05T15:32:02.878Z,6.17
2019-01-05T15:34:50.990Z,6.16
2019-01-05T15:37:44.899Z,6.14
2019-01-05T15:40:45.547Z,6.14
2019-01-05T15:43:39.904Z,6.13
2019-01-05T15:46:28.288Z,6.12
2019-01-05T15:49:31.891Z,6.09
2019-01-05T15:52:18.994Z,6.08
2019-01-05T15:55:05.757Z,6.08
2019-01-05T15:57:52.544Z,6.08
2019-01-05T16:00:46.953Z,6.07
2019-01-05T16:03:35.247Z,6.06
2019-01-05T16:06:22.419Z,6.04
2019-01-05T16:09:09.239Z,6.03
2019-01-05T16:11:56.270Z,6.02
2019-01-05T16:14:43.448Z,6.02
2019-01-05T16:17:40.047Z,6.01
2019-01-05T16:20:26.973Z,5.99
2019-01-05T16:23:15.285Z,5.97
2019-01-05T16:26:09.641Z,5.96
2019-01-05T16:29:14.672Z,5.95
2019-01-05T16:32:03.117Z,5.93
2019-01-05T16:34:54.481Z,5.93
2019-01-05T16:37:58.032Z,5.92
2019-01-05T16:41:04.512Z,5.92
2019-01-05T16:43:46.263Z,5.90
2019-01-05T16:46:28.871Z,5.88
2019-01-05T16:49:29.205Z,5.89
2019-01-05T16:52:26.541Z,5.87
2019-01-05T16:55:13.457Z,5.87
2019-01-05T16:58:10.889Z,5.85
2019-01-05T17:00:57.695Z,5.84
2019-01-05T17:03:54.648Z,5.84
2019-01-05T17:06:46.067Z,5.83
2019-01-05T17:09:33.017Z,5.83
2019-01-05T17:12:36.352Z,5.83
2019-01-05T17:15:25.329Z,5.83
2019-01-05T17:18:16.650Z,5.83
2019-01-05T17:21:05.503Z,5.81
2019-01-05T17:23:53.712Z,5.82
2019-01-05T17:26:50.831Z,5.81
2019-01-05T17:29:42.127Z,5.81
2019-01-05T17:32:45.409Z,5.81
2019-01-05T17:35:30.910Z,5.79
2019-01-05T17:38:34.101Z,5.80
2019-01-05T17:41:28.589Z,5.80
2019-01-05T17:44:16.854Z,5.80
2019-01-05T17:47:14.308Z,5.79
2019-01-05T17:50:17.880Z,5.81
2019-01-05T17:53:14.977Z,5.80
2019-01-05T17:56:03.313Z,5.80
2019-01-05T17:58:54.558Z,5.79
2019-01-05T18:01:47.921Z,5.80
2019-01-05T18:04:39.499Z,5.80
2019-01-05T18:07:27.964Z,5.80
2019-01-05T18:10:17.689Z,5.79
2019-01-05T18:13:17.800Z,5.79
2019-01-05T18:16:01.936Z,5.79
2019-01-05T18:18:47.285Z,5.79
2019-01-05T18:21:34.125Z,5.80
2019-01-05T18:24:13.367Z,5.79
2019-01-05T18:26:55.857Z,5.79
2019-01-05T18:29:56.701Z,5.78
2019-01-05T18:32:44.954Z,5.80
2019-01-05T18:35:51.523Z,5.81
2019-01-05T18:38:33.854Z,5.80
2019-01-05T18:41:33.544Z,5.79
2019-01-05T18:44:20.477Z,5.78
2019-01-05T18:47:08.754Z,5.79
2019-01-05T18:49:57.104Z,5.79
2019-01-05T18:52:44.359Z,5.79
2019-01-05T18:55:31.142Z,5.80
2019-01-05T18:58:18.300Z,5.79
2019-01-05T19:01:01.822Z,5.79
2019-01-05T19:03:54.266Z,5.79
2019-01-05T19:06:40.998Z,5.78
2019-01-05T19:09:27.772Z,5.78
2019-01-05T19:12:14.872Z,5.79
2019-01-05T19:15:06.199Z,5.78
2019-01-05T19:18:03.443Z,5.79
2019-01-05T19:21:00.944Z,5.79
2019-01-05T19:23:47.979Z,5.78
2019-01-05T19:26:42.465Z,5.78
2019-01-05T19:29:40.976Z,5.78
2019-01-05T19:32:41.224Z,5.79
2019-01-05T19:35:47.916Z,5.78
2019-01-05T19:38:48.329Z,5.78
2019-01-05T19:41:31.981Z,5.78
2019-01-05T19:44:19.906Z,5.78
2019-01-05T19:47:11.028Z,5.78
2019-01-05T19:50:02.165Z,5.78
2019-01-05T19:52:56.526Z,5.79
2019-01-05T19:55:59.889Z,5.79
2019-01-05T19:58:46.734Z,5.79
2019-01-05T20:01:35.050Z,5.79
2019-01-05T20:04:22.056Z,5.79
2019-01-05T20:07:09.127Z,5.79
2019-01-05T20:10:03.828Z,5.79
2019-01-05T20:12:54.348Z,5.79
2019-01-05T20:15:45.675Z,5.79
2019-01-05T20:18:32.726Z,5.79
2019-01-05T20:21:23.057Z,5.79
2019-01-05T20:24:23.381Z,5.81
2019-01-05T20:27:16.871Z,5.80
2019-01-05T20:30:14.953Z,5.81
2019-01-05T20:33:02.436Z,5.80
2019-01-05T20:35:47.393Z,5.81
2019-01-05T20:38:34.134Z,5.81
2019-01-05T20:41:20.984Z,5.82
2019-01-05T20:44:07.692Z,5.81
2019-01-05T20:46:46.879Z,5.81
2019-01-05T20:49:50.375Z,5.82
2019-01-05T20:52:38.703Z,5.83
2019-01-05T20:55:30.105Z,5.82
2019-01-05T20:58:18.385Z,5.83
2019-01-05T21:01:05.310Z,5.83
2019-01-05T21:03:59.365Z,5.83
2019-01-05T21:07:02.694Z,5.83
2019-01-05T21:10:09.257Z,5.83
2019-01-05T21:12:56.097Z,5.83
2019-01-05T21:16:02.193Z,5.83
2019-01-05T21:18:49.295Z,5.84
2019-01-05T21:21:49.749Z,5.84
2019-01-05T21:24:38.044Z,5.83
2019-01-05T21:27:38.546Z,5.83
2019-01-05T21:30:26.690Z,5.84
2019-01-05T21:33:13.479Z,5.84
2019-01-05T21:36:06.728Z,5.84
2019-01-05T21:38:55.087Z,5.85
2019-01-05T21:41:41.746Z,5.85
2019-01-05T21:44:28.770Z,5.85
2019-01-05T21:47:35.292Z,5.86
2019-01-05T21:50:22.256Z,5.86
2019-01-05T21:53:16.567Z,5.86
2019-01-05T21:56:03.711Z,5.87
2019-01-05T21:58:57.747Z,5.86
2019-01-05T22:01:44.780Z,5.86
2019-01-05T22:04:31.489Z,5.87
2019-01-05T22:07:38.155Z,5.87
2019-01-05T22:10:33.506Z,5.87
2019-01-05T22:13:16.191Z,5.87
2019-01-05T22:16:04.483Z,5.88
2019-01-05T22:19:10.946Z,5.87
2019-01-05T22:21:59.212Z,5.89
2019-01-05T22:24:46.221Z,5.89
2019-01-05T22:27:37.667Z,5.89
2019-01-05T22:30:33.346Z,5.89
2019-01-05T22:33:20.976Z,5.90
2019-01-05T22:36:07.796Z,5.91
2019-01-05T22:38:54.469Z,5.91
2019-01-05T22:41:51.892Z,5.91
2019-01-05T22:44:46.217Z,5.91
2019-01-05T22:47:43.723Z,5.91
2019-01-05T22:50:37.991Z,5.92
2019-01-05T22:53:38.113Z,5.94
2019-01-05T22:56:32.501Z,5.93
2019-01-05T22:59:19.154Z,5.93
2019-01-05T23:02:07.434Z,5.93
2019-01-05T23:05:01.639Z,5.92
2019-01-05T23:07:58.722Z,5.94
2019-01-05T23:10:59.437Z,5.94
2019-01-05T23:13:46.606Z,5.94
2019-01-05T23:16:32.771Z,5.93
2019-01-05T23:19:19.531Z,5.94
2019-01-05T23:22:19.798Z,5.94
2019-01-05T23:25:20.426Z,5.95
2019-01-05T23:28:15.233Z,5.93
2019-01-05T23:31:02.261Z,5.94
2019-01-05T23:33:50.547Z,5.96
2019-01-05T23:36:45.053Z,5.97
2019-01-05T23:39:36.409Z,5.97
2019-01-05T23:42:33.745Z,5.96
2019-01-05T23:45:30.983Z,5.96
2019-01-05T23:48:17.873Z,5.97
2019-01-05T23:51:01.289Z,5.97
2019-01-05T23:53:49.547Z,5.97
2019-01-05T23:56:49.873Z,5.97
2019-01-05T23:59:56.156Z,5.97
